createdAt,value
2023-02-28T00:02:03.942Z,74.45
2023-02-28T00:04:54.054Z,74.16
2023-02-28T00:07:40.264Z,74.68
2023-02-28T00:10:28.539Z,74.62
2023-02-28T00:13:14.305Z,74.50
2023-02-28T00:16:14.852Z,74.32
2023-02-28T00:19:00.424Z,73.88
2023-02-28T00:21:47.404Z,74.07
2023-02-28T00:24:32.788Z,73.85
2023-02-28T00:27:18.423Z,73.54
2023-02-28T00:30:07.781Z,73.39
2023-02-28T00:32:53.677Z,72.55
2023-02-28T00:35:39.325Z,72.52
2023-02-28T00:38:24.758Z,72.81
2023-02-28T00:41:12.942Z,72.85
2023-02-28T00:44:00.209Z,72.72
2023-02-28T00:46:45.753Z,72.69
2023-02-28T00:49:31.473Z,72.33
2023-02-28T00:52:17.039Z,71.93
2023-02-28T00:55:02.366Z,72.10
2023-02-28T00:57:47.743Z,71.01
2023-02-28T01:00:33.427Z,71.74
2023-02-28T01:03:20.339Z,71.56
2023-02-28T01:06:06.365Z,71.20
2023-02-28T01:08:51.789Z,71.33
2023-02-28T01:11:37.280Z,71.20
2023-02-28T01:14:23.266Z,71.21
2023-02-28T01:17:09.083Z,70.97
2023-02-28T01:19:56.974Z,70.94
2023-02-28T01:22:44.784Z,71.30
2023-02-28T01:25:30.419Z,70.98
2023-02-28T01:28:17.124Z,70.90
2023-02-28T01:31:02.723Z,70.60
2023-02-28T01:33:48.940Z,70.72
2023-02-28T01:36:35.006Z,70.75
2023-02-28T01:39:20.603Z,70.91
2023-02-28T01:42:06.355Z,71.13
2023-02-28T01:45:20.554Z,70.00
2023-02-28T01:48:09.978Z,70.35
2023-02-28T01:51:00.985Z,70.01
2023-02-28T01:53:54.421Z,70.47
2023-02-28T01:56:49.930Z,70.66
2023-02-28T02:00:01.409Z,70.83
2023-02-28T02:02:50.870Z,70.98
2023-02-28T02:05:38.792Z,71.42
2023-02-28T02:08:29.160Z,71.23
2023-02-28T02:11:18.428Z,70.59
2023-02-28T02:14:46.077Z,70.44
2023-02-28T02:17:46.770Z,71.44
2023-02-28T02:21:02.883Z,71.09
2023-02-28T02:24:16.974Z,71.13
2023-02-28T02:27:38.184Z,70.64
2023-02-28T02:30:58.719Z,71.42
2023-02-28T02:34:23.587Z,71.63
2023-02-28T02:37:30.038Z,72.06
2023-02-28T02:40:31.004Z,72.49
2023-02-28T02:43:23.701Z,72.07
2023-02-28T02:46:19.741Z,72.65
2023-02-28T02:49:10.502Z,72.98
2023-02-28T02:52:05.897Z,72.14
2023-02-28T02:54:56.677Z,71.86
2023-02-28T02:58:04.396Z,72.94
2023-02-28T03:00:54.670Z,72.27
2023-02-28T03:03:41.361Z,72.39
2023-02-28T03:06:27.804Z,72.09
2023-02-28T03:09:13.716Z,71.77
2023-02-28T03:11:59.837Z,71.87
2023-02-28T03:15:29.169Z,70.93
2023-02-28T03:18:25.925Z,70.40
2023-02-28T03:21:25.665Z,71.04
2023-02-28T03:24:32.147Z,70.17
2023-02-28T03:27:42.142Z,70.73
2023-02-28T03:30:49.159Z,70.90
2023-02-28T03:33:43.402Z,70.13
2023-02-28T03:36:44.780Z,70.16
2023-02-28T03:39:43.266Z,70.12
2023-02-28T03:42:35.294Z,69.93
2023-02-28T03:45:30.918Z,70.01
2023-02-28T03:48:28.664Z,69.99
2023-02-28T03:51:21.784Z,70.39
2023-02-28T03:54:13.221Z,70.62
2023-02-28T03:57:40.938Z,69.86
2023-02-28T04:00:33.845Z,69.22
2023-02-28T04:03:19.876Z,69.56
2023-02-28T04:06:08.438Z,69.66
2023-02-28T04:08:54.260Z,69.18
2023-02-28T04:11:42.851Z,69.17
2023-02-28T04:14:28.660Z,69.72
2023-02-28T04:17:13.924Z,69.03
2023-02-28T04:19:59.681Z,69.55
2023-02-28T04:22:45.129Z,69.34
2023-02-28T04:25:30.612Z,69.79
2023-02-28T04:28:16.096Z,69.11
2023-02-28T04:31:04.384Z,68.58
2023-02-28T04:33:49.988Z,69.20
2023-02-28T04:36:35.726Z,69.42
2023-02-28T04:39:25.342Z,69.67
2023-02-28T04:42:13.177Z,69.80
2023-02-28T04:44:58.923Z,70.96
2023-02-28T04:47:44.125Z,71.03
2023-02-28T04:50:29.617Z,71.78
2023-02-28T04:53:14.984Z,71.99
2023-02-28T04:56:01.667Z,72.07
2023-02-28T04:58:48.235Z,72.08
2023-02-28T05:01:35.805Z,71.68
2023-02-28T05:04:21.591Z,71.88
2023-02-28T05:07:06.897Z,72.95
2023-02-28T05:09:52.304Z,72.24
2023-02-28T05:12:38.292Z,72.09
2023-02-28T05:15:35.313Z,71.93
2023-02-28T05:18:21.306Z,72.09
2023-02-28T05:21:06.979Z,72.74
2023-02-28T05:23:53.520Z,72.25
2023-02-28T05:26:42.113Z,71.95
2023-02-28T05:29:27.605Z,72.38
2023-02-28T05:32:14.234Z,72.55
2023-02-28T05:35:02.530Z,72.36
2023-02-28T05:37:49.460Z,72.73
2023-02-28T05:40:35.314Z,72.47
2023-02-28T05:43:24.556Z,72.24
2023-02-28T05:46:12.268Z,72.17
2023-02-28T05:49:01.179Z,72.58
2023-02-28T05:51:46.991Z,72.90
2023-02-28T05:54:32.813Z,73.40
2023-02-28T05:57:24.641Z,72.42
2023-02-28T06:00:22.312Z,72.79
2023-02-28T06:03:13.491Z,72.13
2023-02-28T06:05:58.990Z,72.73
2023-02-28T06:08:45.773Z,72.46
2023-02-28T06:11:32.233Z,73.03
2023-02-28T06:14:20.360Z,73.13
2023-02-28T06:17:06.181Z,72.43
2023-02-28T06:19:52.970Z,71.97
2023-02-28T06:22:38.933Z,72.24
2023-02-28T06:25:24.645Z,72.21
2023-02-28T06:28:09.971Z,72.40
2023-02-28T06:30:56.461Z,72.57
2023-02-28T06:33:43.728Z,72.94
2023-02-28T06:36:30.167Z,72.98
2023-02-28T06:39:15.909Z,73.13
2023-02-28T06:42:01.937Z,73.72
2023-02-28T06:44:49.566Z,74.25
2023-02-28T06:47:36.600Z,73.66
2023-02-28T06:50:22.277Z,73.98
2023-02-28T06:53:08.786Z,73.93
2023-02-28T06:55:55.210Z,73.70
2023-02-28T06:58:43.338Z,73.69
2023-02-28T07:01:33.802Z,74.76
2023-02-28T07:04:19.576Z,73.96
2023-02-28T07:07:05.475Z,72.50
2023-02-28T07:09:50.810Z,73.26
2023-02-28T07:12:40.564Z,73.59
2023-02-28T07:15:27.564Z,73.94
2023-02-28T07:18:13.002Z,73.47
2023-02-28T07:21:02.263Z,72.85
2023-02-28T07:23:48.066Z,73.03
2023-02-28T07:26:35.289Z,71.99
2023-02-28T07:29:20.948Z,72.28
2023-02-28T07:32:06.472Z,71.75
2023-02-28T07:34:51.836Z,71.70
2023-02-28T07:37:40.273Z,71.98
2023-02-28T07:40:27.171Z,72.15
2023-02-28T07:43:12.312Z,71.78
2023-02-28T07:46:07.982Z,71.29
2023-02-28T07:48:56.580Z,71.04
2023-02-28T07:51:42.578Z,70.52
2023-02-28T07:54:27.924Z,70.03
2023-02-28T07:57:13.517Z,70.64
2023-02-28T07:59:59.532Z,70.14
2023-02-28T08:02:45.697Z,70.28
2023-02-28T08:05:39.880Z,70.36
2023-02-28T08:08:25.285Z,70.42
2023-02-28T08:11:11.118Z,70.79
2023-02-28T08:13:59.701Z,68.88
2023-02-28T08:16:45.275Z,69.03
2023-02-28T08:19:31.188Z,68.43
2023-02-28T08:22:18.199Z,67.99
2023-02-28T08:25:04.312Z,68.47
2023-02-28T08:27:53.182Z,68.56
2023-02-28T08:30:38.848Z,68.25
2023-02-28T08:33:25.730Z,67.76
2023-02-28T08:36:17.579Z,66.95
2023-02-28T08:39:04.490Z,66.22
2023-02-28T08:41:59.081Z,66.03
2023-02-28T08:44:52.770Z,66.61
2023-02-28T08:47:38.815Z,66.68
2023-02-28T08:50:24.292Z,67.05
2023-02-28T08:53:09.641Z,67.19
2023-02-28T08:55:58.192Z,68.00
2023-02-28T08:58:44.786Z,68.28
2023-02-28T09:01:31.930Z,67.30
2023-02-28T09:04:20.061Z,67.67
2023-02-28T09:07:07.024Z,67.34
2023-02-28T09:09:55.604Z,66.32
2023-02-28T09:12:42.176Z,66.29
2023-02-28T09:15:27.854Z,65.80
2023-02-28T09:18:14.055Z,66.41
2023-02-28T09:20:59.791Z,65.55
2023-02-28T09:23:47.003Z,65.23
2023-02-28T09:26:39.055Z,65.23
2023-02-28T09:29:29.891Z,65.16
2023-02-28T09:32:15.496Z,65.42
2023-02-28T09:35:01.016Z,66.06
2023-02-28T09:37:46.381Z,64.59
2023-02-28T09:40:32.865Z,65.17
2023-02-28T09:43:21.153Z,65.10
2023-02-28T09:46:24.939Z,64.62
2023-02-28T09:49:34.504Z,64.56
2023-02-28T09:52:24.012Z,64.82
2023-02-28T09:55:46.638Z,64.67
2023-02-28T09:58:39.140Z,64.42
2023-02-28T10:01:25.011Z,63.75
2023-02-28T10:04:29.064Z,63.99
2023-02-28T10:07:34.174Z,64.12
2023-02-28T10:10:19.792Z,64.71
2023-02-28T10:13:14.388Z,64.42
2023-02-28T10:16:05.379Z,64.66
2023-02-28T10:19:21.823Z,64.30
2023-02-28T10:22:23.804Z,63.82
2023-02-28T10:25:29.532Z,63.79
2023-02-28T10:28:20.738Z,63.52
2023-02-28T10:31:24.761Z,63.73
2023-02-28T10:34:14.149Z,63.22
2023-02-28T10:37:11.344Z,62.80
2023-02-28T10:39:57.417Z,62.87
2023-02-28T10:42:43.421Z,62.53
2023-02-28T10:45:35.743Z,63.40
2023-02-28T10:48:21.258Z,61.83
2023-02-28T10:51:13.532Z,60.82
2023-02-28T10:54:02.769Z,59.86
2023-02-28T10:57:16.345Z,61.15
2023-02-28T11:00:20.086Z,59.73
2023-02-28T11:03:53.900Z,60.07
2023-02-28T11:06:46.833Z,60.10
2023-02-28T11:09:39.745Z,60.75
2023-02-28T11:12:46.885Z,61.17
2023-02-28T11:15:38.109Z,60.86
2023-02-28T11:18:30.345Z,60.98
2023-02-28T11:21:19.244Z,60.31
2023-02-28T11:24:42.444Z,61.11
2023-02-28T11:27:34.822Z,61.85
2023-02-28T11:30:27.570Z,61.35
2023-02-28T11:33:51.269Z,60.13
2023-02-28T11:36:37.990Z,60.94
2023-02-28T11:39:27.048Z,61.28
2023-02-28T11:42:25.083Z,60.48
2023-02-28T11:45:16.267Z,60.91
2023-02-28T11:48:10.902Z,61.63
2023-02-28T11:51:16.490Z,61.06
2023-02-28T11:54:01.586Z,61.27
2023-02-28T11:56:51.562Z,62.58
2023-02-28T12:00:03.699Z,61.15
2023-02-28T12:03:12.631Z,62.08
2023-02-28T12:06:33.400Z,61.57
2023-02-28T12:09:55.369Z,63.64
2023-02-28T12:12:53.425Z,62.50
2023-02-28T12:15:38.609Z,61.91
2023-02-28T12:18:33.151Z,62.33
2023-02-28T12:21:28.548Z,61.53
2023-02-28T12:24:32.558Z,61.86
2023-02-28T12:27:22.757Z,61.67
2023-02-28T12:30:21.235Z,58.62
2023-02-28T12:33:14.434Z,59.61
2023-02-28T12:36:06.317Z,59.71
2023-02-28T12:38:56.688Z,60.17
2023-02-28T12:42:03.629Z,59.77
2023-02-28T12:45:02.307Z,60.56
2023-02-28T12:47:53.291Z,61.21
2023-02-28T12:50:39.380Z,60.77
2023-02-28T12:54:02.811Z,61.73
2023-02-28T12:57:27.386Z,60.88
2023-02-28T13:00:25.777Z,60.98
2023-02-28T13:03:46.708Z,60.54
2023-02-28T13:06:57.074Z,60.17
2023-02-28T13:09:55.922Z,59.93
2023-02-28T13:12:50.631Z,58.32
2023-02-28T13:15:42.144Z,57.64
2023-02-28T13:18:40.907Z,58.24
2023-02-28T13:21:30.017Z,58.50
2023-02-28T13:24:39.155Z,60.04
2023-02-28T13:27:41.524Z,60.11
2023-02-28T13:31:00.715Z,59.79
2023-02-28T13:33:46.152Z,60.22
2023-02-28T13:36:33.680Z,60.09
2023-02-28T13:39:35.998Z,60.14
2023-02-28T13:42:35.567Z,59.27
2023-02-28T13:45:39.140Z,58.79
2023-02-28T13:48:29.999Z,58.36
2023-02-28T13:51:40.761Z,59.69
2023-02-28T13:55:03.705Z,59.74
2023-02-28T13:58:12.647Z,58.97
2023-02-28T14:01:05.393Z,59.69
2023-02-28T14:04:16.862Z,59.50
2023-02-28T14:07:03.365Z,58.79
2023-02-28T14:10:00.028Z,58.77
2023-02-28T14:13:01.149Z,58.53
2023-02-28T14:16:03.371Z,59.02
2023-02-28T14:19:01.493Z,58.50
2023-02-28T14:21:53.308Z,57.38
2023-02-28T14:25:15.972Z,57.69
2023-02-28T14:28:13.515Z,58.22
2023-02-28T14:31:04.431Z,58.10
2023-02-28T14:34:08.650Z,58.29
2023-02-28T14:36:55.710Z,58.43
2023-02-28T14:39:43.041Z,58.35
2023-02-28T14:42:31.573Z,58.79
2023-02-28T14:45:22.237Z,59.28
2023-02-28T14:48:11.098Z,59.50
2023-02-28T14:51:01.702Z,61.36
2023-02-28T14:53:51.778Z,60.96
2023-02-28T14:56:41.311Z,60.35
2023-02-28T14:59:35.093Z,59.62
2023-02-28T15:02:23.893Z,59.42
2023-02-28T15:05:18.565Z,59.90
2023-02-28T15:08:14.914Z,60.53
2023-02-28T15:11:05.567Z,60.08
2023-02-28T15:13:53.403Z,60.15
2023-02-28T15:16:41.798Z,60.21
2023-02-28T15:19:33.475Z,60.34
2023-02-28T15:22:29.973Z,60.18
2023-02-28T15:25:19.966Z,59.84
2023-02-28T15:28:05.602Z,59.69
2023-02-28T15:30:59.159Z,59.71
2023-02-28T15:33:55.484Z,59.92
2023-02-28T15:36:41.616Z,59.95
2023-02-28T15:39:30.314Z,60.05
2023-02-28T15:42:21.245Z,59.85
2023-02-28T15:45:27.498Z,59.87
2023-02-28T15:48:51.510Z,59.40
2023-02-28T15:51:41.156Z,59.42
2023-02-28T15:54:34.506Z,59.32
2023-02-28T15:57:29.003Z,59.08
2023-02-28T16:00:19.787Z,59.45
2023-02-28T16:03:27.948Z,59.44
2023-02-28T16:06:26.570Z,59.28
2023-02-28T16:09:21.024Z,59.36
2023-02-28T16:12:06.481Z,59.18
2023-02-28T16:14:55.350Z,59.03
2023-02-28T16:17:41.337Z,59.66
2023-02-28T16:20:30.407Z,60.42
2023-02-28T16:23:16.224Z,60.88
2023-02-28T16:26:06.808Z,61.01
2023-02-28T16:28:54.515Z,61.45
2023-02-28T16:31:40.557Z,61.62
2023-02-28T16:34:26.304Z,61.97
2023-02-28T16:37:15.057Z,61.71
2023-02-28T16:40:00.562Z,61.91
2023-02-28T16:42:47.600Z,62.22
2023-02-28T16:45:34.653Z,61.76
2023-02-28T16:48:20.871Z,61.59
2023-02-28T16:51:07.688Z,61.80
2023-02-28T16:53:53.147Z,62.37
2023-02-28T16:56:43.592Z,62.78
2023-02-28T16:59:29.962Z,63.01
2023-02-28T17:02:20.182Z,62.75
2023-02-28T17:05:07.643Z,62.86
2023-02-28T17:07:53.229Z,63.17
2023-02-28T17:10:38.533Z,62.21
2023-02-28T17:13:23.924Z,62.15
2023-02-28T17:16:23.467Z,62.42
2023-02-28T17:19:15.294Z,63.19
2023-02-28T17:22:02.289Z,63.71
2023-02-28T17:24:47.779Z,63.66
2023-02-28T17:27:33.944Z,63.45
2023-02-28T17:30:29.683Z,63.44
2023-02-28T17:33:16.768Z,63.67
2023-02-28T17:36:02.865Z,63.04
2023-02-28T17:38:57.467Z,63.84
2023-02-28T17:41:44.309Z,64.26
2023-02-28T17:44:30.703Z,64.12
2023-02-28T17:47:16.429Z,64.79
2023-02-28T17:50:23.020Z,65.88
2023-02-28T17:53:09.370Z,65.63
2023-02-28T17:55:54.790Z,65.15
2023-02-28T17:58:40.558Z,65.84
2023-02-28T18:01:27.153Z,65.26
2023-02-28T18:04:13.107Z,65.63
2023-02-28T18:07:01.037Z,65.34
2023-02-28T18:09:46.762Z,65.12
2023-02-28T18:12:32.410Z,65.35
2023-02-28T18:15:21.047Z,65.54
2023-02-28T18:18:07.817Z,66.55
2023-02-28T18:20:54.470Z,66.86
2023-02-28T18:23:47.686Z,66.56
2023-02-28T18:26:33.202Z,66.24
2023-02-28T18:29:25.222Z,66.62
2023-02-28T18:32:10.812Z,67.70
2023-02-28T18:34:56.674Z,66.54
2023-02-28T18:37:42.349Z,66.75
2023-02-28T18:40:27.824Z,66.81
2023-02-28T18:43:13.998Z,66.75
2023-02-28T18:46:05.083Z,67.03
2023-02-28T18:48:50.515Z,66.52
2023-02-28T18:51:37.429Z,67.26
2023-02-28T18:54:22.715Z,66.90
2023-02-28T18:57:08.261Z,68.06
2023-02-28T18:59:54.421Z,68.10
2023-02-28T19:02:40.852Z,67.67
2023-02-28T19:05:28.073Z,67.60
2023-02-28T19:08:13.744Z,67.94
2023-02-28T19:10:59.233Z,67.41
2023-02-28T19:13:46.238Z,68.49
2023-02-28T19:16:32.785Z,68.43
2023-02-28T19:19:18.748Z,68.25
2023-02-28T19:22:05.224Z,67.48
2023-02-28T19:24:51.362Z,67.99
2023-02-28T19:27:36.994Z,68.21
2023-02-28T19:30:23.036Z,67.99
2023-02-28T19:33:08.397Z,67.83
2023-02-28T19:35:53.864Z,68.17
2023-02-28T19:38:40.296Z,67.92
2023-02-28T19:41:27.006Z,68.78
2023-02-28T19:44:12.393Z,69.87
2023-02-28T19:46:57.909Z,70.48
2023-02-28T19:49:43.274Z,70.05
2023-02-28T19:52:28.897Z,70.90
2023-02-28T19:55:15.306Z,71.31
2023-02-28T19:58:02.005Z,70.51
2023-02-28T20:00:47.595Z,70.73
2023-02-28T20:03:33.572Z,70.56
2023-02-28T20:06:22.510Z,69.92
2023-02-28T20:09:08.591Z,69.40
2023-02-28T20:11:54.868Z,69.30
2023-02-28T20:14:41.151Z,69.42
2023-02-28T20:17:28.966Z,69.03
2023-02-28T20:20:14.408Z,68.94
2023-02-28T20:23:00.267Z,69.31
2023-02-28T20:25:46.965Z,68.79
2023-02-28T20:28:33.210Z,69.29
2023-02-28T20:31:22.698Z,69.29
2023-02-28T20:34:09.166Z,69.06
2023-02-28T20:36:59.666Z,68.56
2023-02-28T20:40:11.500Z,68.58
2023-02-28T20:43:07.646Z,68.64
2023-02-28T20:46:28.679Z,68.57
2023-02-28T20:49:15.916Z,68.44
2023-02-28T20:52:04.699Z,68.81
2023-02-28T20:54:54.715Z,68.39
2023-02-28T20:57:41.375Z,68.52
2023-02-28T21:00:34.132Z,69.21
2023-02-28T21:03:24.409Z,69.02
2023-02-28T21:06:15.515Z,69.20
2023-02-28T21:09:01.367Z,69.59
2023-02-28T21:11:48.437Z,69.67
2023-02-28T21:14:35.216Z,69.32
2023-02-28T21:17:20.819Z,69.78
2023-02-28T21:20:07.720Z,70.08
2023-02-28T21:22:54.125Z,69.99
2023-02-28T21:25:40.210Z,70.47
2023-02-28T21:28:25.971Z,70.60
2023-02-28T21:31:15.294Z,70.52
2023-02-28T21:34:03.264Z,70.40
2023-02-28T21:36:48.680Z,70.71
2023-02-28T21:39:35.856Z,70.53
2023-02-28T21:42:21.643Z,71.37
2023-02-28T21:45:07.803Z,71.64
2023-02-28T21:47:53.596Z,72.08
2023-02-28T21:50:39.838Z,72.44
2023-02-28T21:53:25.733Z,72.05
2023-02-28T21:56:15.112Z,71.88
2023-02-28T21:59:04.245Z,71.21
2023-02-28T22:01:55.448Z,71.71
2023-02-28T22:04:40.914Z,71.03
2023-02-28T22:07:26.241Z,71.21
2023-02-28T22:10:11.809Z,71.52
2023-02-28T22:13:01.887Z,71.43
2023-02-28T22:15:47.282Z,71.45
2023-02-28T22:18:34.588Z,71.28
2023-02-28T22:21:23.491Z,70.86
2023-02-28T22:24:09.961Z,70.84
2023-02-28T22:26:55.964Z,70.76
2023-02-28T22:29:41.733Z,71.03
2023-02-28T22:32:27.280Z,71.44
2023-02-28T22:35:13.244Z,71.89
2023-02-28T22:37:58.798Z,71.06
2023-02-28T22:40:44.340Z,70.52
2023-02-28T22:43:30.181Z,70.47
2023-02-28T22:46:15.884Z,70.76
2023-02-28T22:49:07.989Z,70.21
2023-02-28T22:51:55.709Z,70.59
2023-02-28T22:54:41.182Z,70.11
2023-02-28T22:57:26.444Z,70.68
2023-02-28T23:00:15.579Z,71.14
2023-02-28T23:03:01.199Z,70.50
2023-02-28T23:05:46.807Z,71.08
2023-02-28T23:08:32.459Z,70.80
2023-02-28T23:11:21.494Z,70.01
2023-02-28T23:14:07.746Z,70.56
2023-02-28T23:16:54.518Z,71.16
2023-02-28T23:19:40.615Z,70.39
2023-02-28T23:22:26.134Z,70.76
2023-02-28T23:25:13.302Z,70.01
2023-02-28T23:27:58.764Z,69.98
2023-02-28T23:30:44.347Z,70.91
2023-02-28T23:33:30.600Z,70.53
2023-02-28T23:36:17.415Z,70.79
2023-02-28T23:39:03.044Z,70.83
2023-02-28T23:41:48.483Z,70.61
2023-02-28T23:44:34.223Z,70.91
2023-02-28T23:47:20.181Z,71.08
2023-02-28T23:50:05.969Z,70.72
2023-02-28T23:52:53.183Z,71.73
2023-02-28T23:55:38.340Z,71.60
2023-02-28T23:58:23.667Z,71.17
